createdAt,value
2018-02-17T00:01:09.490Z,9.70
2018-02-17T00:03:39.418Z,11.70
2018-02-17T00:06:07.834Z,11.17
2018-02-17T00:08:35.964Z,10.43
2018-02-17T00:11:04.769Z,10.70
2018-02-17T00:13:32.910Z,9.53
2018-02-17T00:16:14.641Z,9.73
2018-02-17T00:18:45.379Z,10.70
2018-02-17T00:21:22.245Z,8.80
2018-02-17T00:23:55.767Z,10.17
2018-02-17T00:26:28.762Z,11.13
2018-02-17T00:29:02.353Z,9.53
2018-02-17T00:31:30.479Z,8.40
2018-02-17T00:34:11.184Z,10.30
2018-02-17T00:36:42.213Z,9.60
2018-02-17T00:39:10.365Z,10.20
2018-02-17T00:41:38.511Z,9.60
2018-02-17T00:44:07.109Z,9.87
2018-02-17T00:46:35.260Z,11.93
2018-02-17T00:49:03.364Z,9.60
2018-02-17T00:51:31.462Z,9.63
2018-02-17T00:53:59.581Z,10.70
2018-02-17T00:56:27.845Z,11.10
2018-02-17T00:58:56.198Z,11.43
2018-02-17T01:01:24.520Z,9.90
2018-02-17T01:03:52.677Z,11.40
2018-02-17T01:06:20.924Z,10.80
2018-02-17T01:08:49.948Z,10.97
2018-02-17T01:11:18.840Z,11.37
2018-02-17T01:13:47.713Z,11.70
2018-02-17T01:16:15.796Z,10.40
2018-02-17T01:18:43.929Z,12.20
2018-02-17T01:21:12.038Z,12.07
2018-02-17T01:23:40.146Z,11.60
2018-02-17T01:26:09.991Z,11.90
2018-02-17T01:28:38.123Z,10.87
2018-02-17T01:31:06.228Z,10.90
2018-02-17T01:33:34.344Z,10.47
2018-02-17T01:36:02.465Z,11.53
2018-02-17T01:38:30.600Z,11.53
2018-02-17T01:40:58.722Z,10.70
2018-02-17T01:43:26.823Z,10.40
2018-02-17T01:45:54.949Z,10.50
2018-02-17T01:48:23.054Z,13.40
2018-02-17T01:50:51.143Z,10.33
2018-02-17T01:53:19.275Z,11.13
2018-02-17T01:55:47.402Z,11.70
2018-02-17T01:58:15.513Z,11.90
2018-02-17T02:00:43.645Z,12.50
2018-02-17T02:03:11.767Z,11.53
2018-02-17T02:05:39.881Z,11.63
2018-02-17T02:08:08.310Z,11.60
2018-02-17T02:10:37.386Z,12.53
2018-02-17T02:13:05.496Z,12.37
2018-02-17T02:15:33.623Z,12.70
2018-02-17T02:18:01.746Z,12.30
2018-02-17T02:20:30.454Z,11.77
2018-02-17T02:22:59.531Z,12.70
2018-02-17T02:25:27.718Z,12.57
2018-02-17T02:27:55.824Z,11.93
2018-02-17T02:30:23.940Z,12.07
2018-02-17T02:32:52.050Z,12.30
2018-02-17T02:42:05.094Z,12.10
2018-02-17T02:44:33.414Z,11.90
2018-02-17T02:47:05.757Z,11.80
2018-02-17T02:49:34.892Z,12.70
2018-02-17T02:52:05.554Z,12.30
2018-02-17T02:54:37.436Z,13.00
2018-02-17T02:57:09.863Z,12.00
2018-02-17T02:59:40.008Z,13.53
2018-02-17T03:02:10.335Z,14.63
2018-02-17T03:04:38.733Z,12.00
2018-02-17T03:07:07.013Z,12.00
2018-02-17T03:09:36.146Z,13.00
2018-02-17T03:12:05.546Z,13.47
2018-02-17T03:14:33.722Z,14.27
2018-02-17T03:17:01.852Z,13.10
2018-02-17T03:19:29.983Z,12.53
2018-02-17T03:21:59.031Z,12.70
2018-02-17T03:24:27.208Z,13.50
2018-02-17T03:26:55.355Z,13.47
2018-02-17T03:29:23.494Z,13.17
2018-02-17T03:31:51.662Z,13.67
2018-02-17T03:34:20.664Z,14.00
2018-02-17T03:36:49.617Z,13.50
2018-02-17T03:39:17.793Z,13.23
2018-02-17T03:41:45.929Z,14.00
2018-02-17T03:44:14.095Z,13.80
2018-02-17T03:46:42.991Z,13.27
2018-02-17T03:49:11.143Z,14.53
2018-02-17T03:51:53.907Z,14.37
2018-02-17T03:54:33.295Z,15.10
2018-02-17T03:57:01.449Z,14.93
2018-02-17T03:59:29.565Z,14.50
2018-02-17T04:01:59.507Z,14.90
2018-02-17T04:04:27.618Z,14.30
2018-02-17T04:06:55.785Z,15.10
2018-02-17T04:09:24.701Z,14.87
2018-02-17T04:11:54.748Z,15.80
2018-02-17T04:14:22.942Z,13.80
2018-02-17T04:16:51.070Z,13.93
2018-02-17T04:19:19.225Z,15.17
2018-02-17T04:21:48.184Z,13.90
2018-02-17T04:24:17.035Z,15.03
2018-02-17T04:26:45.918Z,14.47
2018-02-17T04:29:14.817Z,14.47
2018-02-17T04:31:43.217Z,14.73
2018-02-17T04:34:12.427Z,16.27
2018-02-17T04:36:40.567Z,15.00
2018-02-17T04:39:08.677Z,16.03
2018-02-17T04:41:40.564Z,15.60
2018-02-17T04:44:09.035Z,16.63
2018-02-17T04:46:37.163Z,16.77
2018-02-17T04:49:09.010Z,14.63
2018-02-17T04:51:41.709Z,16.17
2018-02-17T04:54:14.282Z,15.87
2018-02-17T04:59:47.891Z,16.13
2018-02-17T05:05:33.341Z,15.37
2018-02-17T05:11:03.381Z,15.10
2018-02-17T05:13:31.519Z,15.97
2018-02-17T05:16:19.224Z,15.40
2018-02-17T05:18:50.911Z,17.87
2018-02-17T05:21:21.784Z,16.63
2018-02-17T05:23:51.560Z,16.03
2018-02-17T05:26:22.047Z,16.30
2018-02-17T05:28:51.802Z,14.83
2018-02-17T05:31:20.385Z,15.43
2018-02-17T05:36:56.232Z,15.00
2018-02-17T05:39:28.049Z,17.37
2018-02-17T05:44:59.343Z,17.37
2018-02-17T05:47:30.839Z,17.90
2018-02-17T05:49:59.800Z,16.07
2018-02-17T05:52:27.991Z,16.60
2018-02-17T05:54:56.211Z,17.97
2018-02-17T05:57:24.348Z,16.83
2018-02-17T05:59:52.469Z,16.47
2018-02-17T06:02:20.683Z,16.10
2018-02-17T06:04:48.851Z,16.97
2018-02-17T06:07:17.340Z,15.33
2018-02-17T06:09:45.523Z,16.47
2018-02-17T06:12:13.681Z,17.77
2018-02-17T06:14:42.851Z,16.50
2018-02-17T06:17:21.836Z,16.90
2018-02-17T06:19:53.713Z,16.87
2018-02-17T06:22:26.628Z,16.97
2018-02-17T06:24:54.778Z,18.30
2018-02-17T06:27:58.862Z,16.40
2018-02-17T06:30:35.196Z,18.20
2018-02-17T06:33:11.674Z,16.47
2018-02-17T06:35:42.480Z,17.50
2018-02-17T06:38:22.229Z,17.03
2018-02-17T06:41:05.657Z,16.80
2018-02-17T06:43:48.690Z,17.77
2018-02-17T06:46:49.472Z,18.17
2018-02-17T06:49:30.050Z,18.20
2018-02-17T07:06:10.553Z,17.93
2018-02-17T07:08:51.414Z,18.40
2018-02-17T07:14:48.141Z,17.37
2018-02-17T07:17:16.712Z,18.23
2018-02-17T07:26:04.450Z,18.60
2018-02-17T07:28:38.455Z,17.60
2018-02-17T07:31:09.368Z,18.47
2018-02-17T07:33:44.149Z,18.47
2018-02-17T07:36:12.248Z,18.97
2018-02-17T07:41:58.114Z,18.87
2018-02-17T07:44:26.278Z,18.37
2018-02-17T07:46:54.455Z,18.60
2018-02-17T07:49:23.331Z,18.40
2018-02-17T07:51:51.425Z,17.70
2018-02-17T07:54:19.503Z,18.97
2018-02-17T07:56:47.611Z,18.30
2018-02-17T07:59:15.696Z,18.70
2018-02-17T08:01:43.828Z,18.20
2018-02-17T08:04:38.220Z,17.03
2018-02-17T08:07:11.046Z,17.67
2018-02-17T08:13:23.369Z,19.67
2018-02-17T08:16:04.808Z,19.50
2018-02-17T08:18:52.159Z,19.87
2018-02-17T08:21:26.835Z,19.87
2018-02-17T08:23:56.874Z,18.80
2018-02-17T08:26:27.490Z,19.53
2018-02-17T08:28:57.911Z,19.27
2018-02-17T08:31:29.003Z,17.90
2018-02-17T08:33:59.104Z,18.90
2018-02-17T08:36:31.546Z,21.17
2018-02-17T08:39:00.271Z,19.13
2018-02-17T09:13:23.239Z,20.03
2018-02-17T09:16:14.575Z,21.80
2018-02-17T09:19:00.694Z,20.20
2018-02-17T09:24:33.073Z,22.03
2018-02-17T09:27:04.750Z,21.77
2018-02-17T09:29:32.973Z,21.43
2018-02-17T09:32:16.077Z,20.53
2018-02-17T09:34:45.278Z,21.60
2018-02-17T09:37:19.980Z,19.20
2018-02-17T10:31:43.499Z,16.40
2018-02-17T10:34:11.695Z,15.90
2018-02-17T10:36:50.513Z,16.70
2018-02-17T11:08:53.895Z,13.13
2018-02-17T12:11:43.448Z,11.50
2018-02-17T12:21:30.318Z,13.60
2018-02-17T12:24:14.235Z,12.03
2018-02-17T12:27:01.609Z,11.70
2018-02-17T12:29:56.404Z,10.93
2018-02-17T12:35:49.253Z,11.00
2018-02-17T12:38:52.712Z,11.20
2018-02-17T12:44:22.969Z,11.80
2018-02-17T13:00:46.304Z,10.40
2018-02-17T13:03:23.761Z,11.50
2018-02-17T13:06:00.596Z,12.07
2018-02-17T13:08:48.131Z,11.90
2018-02-17T13:11:24.425Z,11.60
2018-02-17T13:13:59.898Z,11.10
2018-02-17T13:25:39.563Z,10.23
2018-02-17T13:31:05.544Z,9.90
2018-02-17T13:33:59.750Z,8.30
2018-02-17T13:36:32.291Z,9.10
2018-02-17T13:39:21.494Z,8.57
2018-02-17T13:41:55.282Z,8.20
2018-02-17T13:44:28.931Z,8.60
2018-02-17T13:47:03.193Z,7.87
2018-02-17T13:49:48.141Z,6.97
2018-02-17T13:52:23.182Z,5.77
2018-02-17T13:55:04.682Z,5.20
2018-02-17T13:57:39.831Z,6.37
2018-02-17T14:02:55.648Z,6.90
2018-02-17T14:05:26.972Z,6.10
2018-02-17T14:08:00.089Z,5.83
2018-02-17T14:10:43.089Z,5.50
2018-02-17T14:13:21.740Z,4.97
2018-02-17T14:15:57.630Z,5.13
2018-02-17T14:18:37.745Z,4.70
2018-02-17T14:21:17.342Z,4.00
2018-02-17T14:23:49.728Z,5.60
2018-02-17T14:26:37.419Z,5.30
2018-02-17T14:29:16.601Z,5.77
2018-02-17T14:31:49.906Z,4.80
2018-02-17T14:34:22.164Z,4.37
2018-02-17T14:36:56.267Z,5.03
2018-02-17T14:39:31.697Z,5.10
2018-02-17T14:42:09.181Z,3.97
2018-02-17T14:44:43.745Z,4.60
2018-02-17T14:47:27.644Z,3.97
2018-02-17T14:50:01.377Z,5.07
2018-02-17T14:52:36.849Z,4.63
2018-02-17T14:55:08.315Z,4.93
2018-02-17T14:57:44.660Z,4.73
2018-02-17T15:00:20.630Z,4.30
2018-02-17T15:02:51.219Z,5.30
2018-02-17T15:05:31.594Z,9.40
2018-02-17T15:08:12.838Z,12.10
2018-02-17T15:10:48.312Z,12.40
2018-02-17T15:13:27.721Z,11.20
2018-02-17T15:19:20.540Z,12.77
2018-02-17T15:22:05.985Z,12.70
2018-02-17T15:27:37.653Z,12.33
2018-02-17T15:32:49.491Z,13.53
2018-02-17T15:35:21.754Z,13.80
2018-02-17T15:37:51.923Z,12.53
2018-02-17T15:40:30.713Z,12.47
2018-02-17T15:43:03.427Z,13.43
2018-02-17T15:45:36.497Z,12.17
2018-02-17T15:48:11.600Z,12.60
2018-02-17T15:50:46.907Z,13.63
2018-02-17T15:53:20.256Z,12.70
2018-02-17T15:55:51.783Z,11.63
2018-02-17T15:58:30.484Z,12.53
2018-02-17T16:01:07.300Z,12.67
2018-02-17T16:03:35.493Z,13.33
2018-02-17T16:06:04.375Z,13.13
2018-02-17T16:08:33.238Z,13.50
2018-02-17T16:11:09.599Z,13.00
2018-02-17T16:54:44.998Z,17.20
2018-02-17T16:57:16.559Z,15.93
2018-02-17T16:59:46.208Z,16.43
2018-02-17T17:02:14.381Z,20.23
2018-02-17T17:04:42.475Z,17.60
2018-02-17T17:07:10.590Z,18.60
2018-02-17T17:09:38.705Z,18.17
2018-02-17T17:12:07.652Z,17.07
2018-02-17T17:14:35.769Z,18.07
2018-02-17T17:17:08.546Z,17.20
2018-02-17T17:19:36.720Z,17.80
2018-02-17T17:22:04.829Z,15.17
2018-02-17T17:24:32.964Z,15.47
2018-02-17T17:27:02.034Z,16.83
2018-02-17T17:29:43.789Z,14.40
2018-02-17T17:32:11.880Z,15.90
2018-02-17T17:34:40.888Z,16.37
2018-02-17T17:37:12.213Z,17.40
2018-02-17T17:39:40.334Z,15.60
2018-02-17T17:42:09.949Z,17.97
2018-02-17T17:44:38.061Z,17.10
2018-02-17T17:47:06.174Z,18.17
2018-02-17T17:49:34.276Z,16.50
2018-02-17T17:52:03.143Z,18.07
2018-02-17T17:54:31.239Z,18.10
2018-02-17T17:57:00.220Z,18.77
2018-02-17T17:59:29.527Z,20.20
2018-02-17T18:01:58.400Z,17.83
2018-02-17T18:04:26.509Z,18.93
2018-02-17T18:06:55.629Z,17.57
2018-02-17T18:09:23.754Z,20.50
2018-02-17T18:11:51.872Z,18.07
2018-02-17T18:14:19.961Z,18.70
2018-02-17T18:16:48.079Z,21.83
2018-02-17T18:19:16.213Z,20.30
2018-02-17T18:21:44.334Z,17.80
2018-02-17T18:24:13.201Z,18.50
2018-02-17T18:26:41.300Z,19.10
2018-02-17T18:29:09.445Z,18.33
2018-02-17T18:31:37.571Z,18.53
2018-02-17T18:34:05.663Z,19.50
2018-02-17T18:36:33.779Z,18.70
2018-02-17T18:39:02.649Z,18.90
2018-02-17T18:41:30.737Z,18.90
2018-02-17T18:43:58.840Z,17.30
2018-02-17T18:46:26.946Z,18.80
2018-02-17T18:48:55.072Z,19.93
2018-02-17T18:51:25.115Z,19.73
2018-02-17T18:53:53.217Z,22.03
2018-02-17T18:56:21.325Z,22.10
2018-02-17T18:58:49.458Z,25.60
2018-02-17T19:01:17.564Z,22.57
2018-02-17T19:03:45.663Z,23.60
2018-02-17T19:06:13.781Z,23.03
2018-02-17T19:08:43.963Z,22.37
2018-02-17T19:11:12.081Z,21.73
2018-02-17T19:13:40.185Z,22.07
2018-02-17T19:16:08.293Z,20.87
2018-02-17T19:18:39.407Z,21.80
2018-02-17T19:21:07.520Z,21.77
2018-02-17T19:23:35.631Z,20.40
2018-02-17T19:26:03.740Z,20.00
2018-02-17T19:28:31.849Z,20.80
2018-02-17T19:31:06.598Z,29.00
2018-02-17T19:34:01.667Z,34.27
2018-02-17T19:36:29.790Z,29.47
2018-02-17T19:38:57.981Z,30.37
2018-02-17T19:41:26.113Z,28.67
2018-02-17T19:43:54.226Z,28.83
2018-02-17T19:46:23.100Z,29.27
2018-02-17T19:48:51.179Z,24.17
2018-02-17T19:51:20.037Z,25.03
2018-02-17T19:53:48.185Z,22.50
2018-02-17T19:56:16.276Z,22.40
2018-02-17T19:58:44.393Z,22.53
2018-02-17T20:01:13.252Z,22.67
2018-02-17T20:03:41.376Z,22.03
2018-02-17T20:06:09.472Z,22.70
2018-02-17T20:08:37.569Z,21.20
2018-02-17T20:11:05.688Z,20.60
2018-02-17T20:13:33.786Z,26.70
2018-02-17T20:16:01.889Z,24.47
2018-02-17T20:18:29.988Z,21.63
2018-02-17T20:20:58.887Z,23.17
2018-02-17T20:23:27.726Z,23.17
2018-02-17T20:25:55.838Z,22.60
2018-02-17T20:28:24.720Z,24.07
2018-02-17T20:30:53.048Z,24.00
2018-02-17T20:33:21.179Z,23.77
2018-02-17T20:35:50.044Z,23.50
2018-02-17T20:38:18.129Z,24.13
2018-02-17T20:40:46.265Z,41.90
2018-02-17T20:43:14.393Z,39.50
2018-02-17T20:45:42.507Z,25.10
2018-02-17T20:48:10.595Z,24.37
2018-02-17T20:50:38.712Z,24.80
2018-02-17T20:53:06.827Z,26.10
2018-02-17T20:55:34.924Z,25.40
2018-02-17T20:58:04.053Z,26.33
2018-02-17T21:00:32.923Z,25.80
2018-02-17T21:03:01.069Z,26.07
2018-02-17T21:05:29.338Z,27.33
2018-02-17T21:07:57.464Z,25.40
2018-02-17T21:10:25.589Z,23.70
2018-02-17T21:12:53.688Z,24.93
2018-02-17T21:15:21.804Z,24.60
2018-02-17T21:17:49.908Z,24.60
2018-02-17T21:20:18.016Z,23.70
2018-02-17T21:22:46.104Z,24.77
2018-02-17T21:25:14.993Z,25.10
2018-02-17T21:27:43.096Z,26.53
2018-02-17T21:30:11.185Z,25.20
2018-02-17T21:32:40.516Z,26.40
2018-02-17T21:35:08.620Z,25.20
2018-02-17T21:37:36.732Z,24.60
2018-02-17T21:40:05.752Z,23.50
2018-02-17T21:42:33.855Z,22.20
2018-02-17T21:45:01.966Z,22.30
2018-02-17T21:47:30.072Z,23.23
2018-02-17T21:49:58.172Z,22.73
2018-02-17T21:52:27.760Z,22.67
2018-02-17T21:54:55.878Z,21.93
2018-02-17T21:57:27.508Z,21.27
2018-02-17T21:59:55.633Z,22.00
2018-02-17T22:02:23.737Z,20.47
2018-02-17T22:04:51.845Z,20.13
2018-02-17T22:07:19.961Z,21.07
2018-02-17T22:09:48.049Z,22.67
2018-02-17T22:12:16.153Z,23.17
2018-02-17T22:14:45.194Z,22.60
2018-02-17T22:17:13.308Z,22.07
2018-02-17T22:19:42.171Z,22.30
2018-02-17T22:22:10.266Z,22.00
2018-02-17T22:24:38.402Z,22.37
2018-02-17T22:27:06.486Z,22.93
2018-02-17T22:29:34.610Z,21.40
2018-02-17T22:32:02.703Z,21.17
2018-02-17T22:34:30.816Z,20.10
2018-02-17T22:36:58.907Z,18.80
2018-02-17T22:39:27.024Z,19.40
2018-02-17T22:41:55.123Z,19.70
2018-02-17T22:44:23.258Z,20.20
2018-02-17T22:46:54.503Z,20.33
2018-02-17T22:49:22.603Z,18.70
2018-02-17T22:51:50.722Z,20.20
2018-02-17T22:54:18.808Z,21.60
2018-02-17T22:56:46.920Z,19.77
2018-02-17T22:59:15.030Z,18.97
2018-02-17T23:01:43.897Z,20.57
2018-02-17T23:04:12.033Z,19.80
2018-02-17T23:06:40.129Z,19.40
2018-02-17T23:09:08.273Z,20.20
2018-02-17T23:11:36.362Z,19.17
2018-02-17T23:14:04.465Z,20.57
2018-02-17T23:16:32.540Z,20.80
2018-02-17T23:19:00.657Z,20.77
2018-02-17T23:21:28.760Z,21.93
2018-02-17T23:23:56.849Z,22.03
2018-02-17T23:26:25.012Z,19.77
2018-02-17T23:28:53.109Z,20.33
2018-02-17T23:31:21.225Z,20.17
2018-02-17T23:33:49.315Z,20.47
2018-02-17T23:36:17.429Z,19.63
2018-02-17T23:38:46.280Z,24.40
2018-02-17T23:41:14.388Z,21.80
2018-02-17T23:43:42.483Z,21.50
2018-02-17T23:46:10.577Z,21.70
2018-02-17T23:48:38.700Z,28.73
2018-02-17T23:51:06.815Z,19.50
2018-02-17T23:53:34.928Z,19.50
2018-02-17T23:56:03.040Z,19.97
2018-02-17T23:58:31.160Z,18.87
